Ana Sayfa
METAR-TAF:

METAR-TAF

Havaalanları :

Town MET

Windhoek, Namibya

Enlem: 22-34S, Boylam: 017-06E, yükseklik: 1725 m

Güncel hava durumu gözlemi

Rapor saat 16:00 UTC de 51 dakika önce yapıldı.
Rüzgar batıdan 1 kt
Sıcaklık 29°C
Nem 29%
Basınç 1019 hPa

METAR: FYWW 181600Z AUTO 28001KT //// // ////// 29/09 Q1019

Saat: 18:51 (16:51 UTC)


TAF: eksik

4.000'den fazla havaalanı için hava durumu gözlemleri ve tahminleri (METAR ve TAF raporları).

Kullanılabilir istasyonlar harita üzerinde sarı ve kırmızı noktalarla gösterilir.

İstasyonun adını görmek için fareyi noktanın üzerinde gezdirin.

Sonrasında hava gözlem ve tahminlerini görmek için tıklayın.

Haritayı değiştirmek için: yaklaştırmak için siyah artı işaretli yeşil düğmeye ve uzaklaştırmak için de eksi işaretli düğmeye hızla tıklayın; bitişik haritalar için yeşil okları kullanın.


METAR-TAF: